sensor_id;sensor_type;location;lat;lon;timestamp;pressure;altitude;pressure_sealevel;temperature;humidity
84817;BME280;75051;53.104;18.058;2024-03-23T00:55:51;99981.88;;;8.68;77.69
84817;BME280;75051;53.104;18.058;2024-03-23T00:58:18;99976.16;;;8.66;77.42
84817;BME280;75051;53.104;18.058;2024-03-23T01:00:44;99964.38;;;8.66;77.11
84817;BME280;75051;53.104;18.058;2024-03-23T01:03:11;99969.76;;;8.68;76.94
84817;BME280;75051;53.104;18.058;2024-03-23T01:05:37;99973.98;;;8.68;76.85
84817;BME280;75051;53.104;18.058;2024-03-23T01:08:04;99972.62;;;8.64;76.65
84817;BME280;75051;53.104;18.058;2024-03-23T01:10:31;99974.82;;;8.61;76.65
84817;BME280;75051;53.104;18.058;2024-03-23T01:12:57;99973.71;;;8.58;76.50
84817;BME280;75051;53.104;18.058;2024-03-23T01:15:24;99975.55;;;8.57;76.39
84817;BME280;75051;53.104;18.058;2024-03-23T01:17:51;99981.81;;;8.58;76.31
84817;BME280;75051;53.104;18.058;2024-03-23T01:20:17;99985.77;;;8.56;76.30
84817;BME280;75051;53.104;18.058;2024-03-23T01:22:44;99979.97;;;8.52;76.17
84817;BME280;75051;53.104;18.058;2024-03-23T01:25:10;99974.79;;;8.48;76.32
84817;BME280;75051;53.104;18.058;2024-03-23T01:27:38;99982.55;;;8.46;76.38
84817;BME280;75051;53.104;18.058;2024-03-23T01:30:05;99977.77;;;8.44;76.33
84817;BME280;75051;53.104;18.058;2024-03-23T01:32:32;99977.92;;;8.45;76.56
84817;BME280;75051;53.104;18.058;2024-03-23T01:34:58;99976.27;;;8.46;76.51
84817;BME280;75051;53.104;18.058;2024-03-23T01:37:25;99974.33;;;8.45;76.47
84817;BME280;75051;53.104;18.058;2024-03-23T01:39:52;99973.40;;;8.42;76.38
84817;BME280;75051;53.104;18.058;2024-03-23T01:42:18;99968.11;;;8.40;76.28
84817;BME280;75051;53.104;18.058;2024-03-23T01:44:45;99964.96;;;8.37;76.40
84817;BME280;75051;53.104;18.058;2024-03-23T01:47:11;99968.55;;;8.36;76.38
84817;BME280;75051;53.104;18.058;2024-03-23T01:49:39;99971.09;;;8.37;76.15
84817;BME280;75051;53.104;18.058;2024-03-23T01:52:06;99967.60;;;8.39;76.09
84817;BME280;75051;53.104;18.058;2024-03-23T01:54:33;99963.66;;;8.41;76.18
84817;BME280;75051;53.104;18.058;2024-03-23T01:57:00;99966.41;;;8.40;76.26
84817;BME280;75051;53.104;18.058;2024-03-23T01:59:27;99965.03;;;8.40;76.22
84817;BME280;75051;53.104;18.058;2024-03-23T02:01:53;99963.20;;;8.38;76.43
84817;BME280;75051;53.104;18.058;2024-03-23T02:04:20;99961.23;;;8.38;76.49
84817;BME280;75051;53.104;18.058;2024-03-23T02:06:46;99961.61;;;8.40;76.49
84817;BME280;75051;53.104;18.058;2024-03-23T02:09:14;99965.43;;;8.39;76.45
84817;BME280;75051;53.104;18.058;2024-03-23T02:11:41;99962.27;;;8.39;76.47
84817;BME280;75051;53.104;18.058;2024-03-23T02:14:08;99955.92;;;8.37;76.52
84817;BME280;75051;53.104;18.058;2024-03-23T02:16:34;99954.06;;;8.40;76.37
84817;BME280;75051;53.104;18.058;2024-03-23T02:19:01;99951.87;;;8.40;76.22
84817;BME280;75051;53.104;18.058;2024-03-23T02:21:28;99948.42;;;8.38;76.29
84817;BME280;75051;53.104;18.058;2024-03-23T02:23:59;99948.08;;;8.38;76.56
84817;BME280;75051;53.104;18.058;2024-03-23T02:26:26;99945.82;;;8.34;76.60
84817;BME280;75051;53.104;18.058;2024-03-23T02:28:52;99944.23;;;8.32;76.48
84817;BME280;75051;53.104;18.058;2024-03-23T02:31:19;99939.06;;;8.30;76.69
84817;BME280;75051;53.104;18.058;2024-03-23T02:33:45;99938.16;;;8.25;76.74
84817;BME280;75051;53.104;18.058;2024-03-23T02:36:12;99931.58;;;8.20;77.03
84817;BME280;75051;53.104;18.058;2024-03-23T02:38:38;99925.95;;;8.18;76.89
84817;BME280;75051;53.104;18.058;2024-03-23T02:41:05;99923.45;;;8.20;76.95
84817;BME280;75051;53.104;18.058;2024-03-23T02:43:32;99923.11;;;8.20;76.78
84817;BME280;75051;53.104;18.058;2024-03-23T02:45:58;99923.48;;;8.16;76.95
84817;BME280;75051;53.104;18.058;2024-03-23T02:48:25;99922.21;;;8.13;77.21
84817;BME280;75051;53.104;18.058;2024-03-23T02:50:52;99918.11;;;8.11;77.23
84817;BME280;75051;53.104;18.058;2024-03-23T02:53:21;99909.05;;;8.10;77.24
84817;BME280;75051;53.104;18.058;2024-03-23T02:55:48;99911.45;;;8.09;77.27
84817;BME280;75051;53.104;18.058;2024-03-23T02:58:14;99908.41;;;8.06;77.40
84817;BME280;75051;53.104;18.058;2024-03-23T03:00:43;99902.66;;;8.04;77.66
84817;BME280;75051;53.104;18.058;2024-03-23T03:03:10;99901.02;;;8.03;77.69
84817;BME280;75051;53.104;18.058;2024-03-23T03:05:36;99893.98;;;8.04;77.65
84817;BME280;75051;53.104;18.058;2024-03-23T03:08:03;99886.36;;;8.03;77.51
84817;BME280;75051;53.104;18.058;2024-03-23T03:10:30;99876.13;;;8.01;77.76
84817;BME280;75051;53.104;18.058;2024-03-23T03:12:57;99878.17;;;8.04;77.68
84817;BME280;75051;53.104;18.058;2024-03-23T03:15:24;99880.45;;;8.04;77.84
84817;BME280;75051;53.104;18.058;2024-03-23T03:17:50;99877.58;;;8.06;77.82
84817;BME280;75051;53.104;18.058;2024-03-23T03:20:17;99877.95;;;8.07;77.83
84817;BME280;75051;53.104;18.058;2024-03-23T03:22:44;99876.45;;;8.04;77.87
84817;BME280;75051;53.104;18.058;2024-03-23T03:25:10;99873.64;;;8.01;77.85
84817;BME280;75051;53.104;18.058;2024-03-23T03:27:37;99875.48;;;7.97;77.95
84817;BME280;75051;53.104;18.058;2024-03-23T03:30:04;99872.30;;;7.95;77.90
84817;BME280;75051;53.104;18.058;2024-03-23T03:32:32;99863.98;;;7.95;77.91
84817;BME280;75051;53.104;18.058;2024-03-23T03:34:59;99861.23;;;7.94;77.98
84817;BME280;75051;53.104;18.058;2024-03-23T03:37:26;99864.05;;;7.90;77.99
84817;BME280;75051;53.104;18.058;2024-03-23T03:39:52;99866.14;;;7.87;78.12
84817;BME280;75051;53.104;18.058;2024-03-23T03:42:19;99870.50;;;7.86;78.27
84817;BME280;75051;53.104;18.058;2024-03-23T03:44:45;99870.00;;;7.83;78.15
84817;BME280;75051;53.104;18.058;2024-03-23T03:47:12;99868.32;;;7.81;78.22
84817;BME280;75051;53.104;18.058;2024-03-23T03:49:38;99863.23;;;7.80;78.44
84817;BME280;75051;53.104;18.058;2024-03-23T03:52:05;99863.50;;;7.79;78.33
84817;BME280;75051;53.104;18.058;2024-03-23T03:54:33;99858.61;;;7.81;78.31
84817;BME280;75051;53.104;18.058;2024-03-23T03:56:59;99855.43;;;7.80;78.30
84817;BME280;75051;53.104;18.058;2024-03-23T03:59:26;99857.48;;;7.78;78.26
84817;BME280;75051;53.104;18.058;2024-03-23T04:01:52;99857.95;;;7.76;78.27
84817;BME280;75051;53.104;18.058;2024-03-23T04:04:19;99856.21;;;7.73;78.40
84817;BME280;75051;53.104;18.058;2024-03-23T04:06:46;99856.02;;;7.73;78.39
84817;BME280;75051;53.104;18.058;2024-03-23T04:09:13;99856.83;;;7.73;78.45
84817;BME280;75051;53.104;18.058;2024-03-23T04:11:40;99857.61;;;7.70;78.58
84817;BME280;75051;53.104;18.058;2024-03-23T04:14:07;99857.01;;;7.67;78.51
84817;BME280;75051;53.104;18.058;2024-03-23T04:16:34;99851.86;;;7.67;78.55
84817;BME280;75051;53.104;18.058;2024-03-23T04:19:01;99842.55;;;7.70;78.61
84817;BME280;75051;53.104;18.058;2024-03-23T04:21:28;99840.84;;;7.74;78.43
84817;BME280;75051;53.104;18.058;2024-03-23T04:23:55;99844.40;;;7.76;78.39
84817;BME280;75051;53.104;18.058;2024-03-23T04:26:21;99850.21;;;7.74;78.67
84817;BME280;75051;53.104;18.058;2024-03-23T04:28:48;99852.21;;;7.67;78.65
84817;BME280;75051;53.104;18.058;2024-03-23T04:31:15;99848.80;;;7.63;78.61
84817;BME280;75051;53.104;18.058;2024-03-23T04:33:42;99846.96;;;7.60;78.66
84817;BME280;75051;53.104;18.058;2024-03-23T04:36:08;99835.81;;;7.60;78.82
84817;BME280;75051;53.104;18.058;2024-03-23T04:38:36;99830.23;;;7.60;78.95
84817;BME280;75051;53.104;18.058;2024-03-23T04:41:03;99839.83;;;7.60;78.91
84817;BME280;75051;53.104;18.058;2024-03-23T04:43:31;99836.80;;;7.59;78.92
84817;BME280;75051;53.104;18.058;2024-03-23T04:45:57;99831.09;;;7.62;78.98
84817;BME280;75051;53.104;18.058;2024-03-23T04:48:25;99831.82;;;7.65;78.82
84817;BME280;75051;53.104;18.058;2024-03-23T04:50:55;99835.80;;;7.67;78.90
84817;BME280;75051;53.104;18.058;2024-03-23T04:53:24;99837.35;;;7.65;78.75
84817;BME280;75051;53.104;18.058;2024-03-23T04:55:58;99836.04;;;7.66;78.78
84817;BME280;75051;53.104;18.058;2024-03-23T04:58:25;99838.05;;;7.70;78.76
84817;BME280;75051;53.104;18.058;2024-03-23T05:00:56;99839.32;;;7.73;78.61
84817;BME280;75051;53.104;18.058;2024-03-23T05:03:23;99834.35;;;7.72;78.60
84817;BME280;75051;53.104;18.058;2024-03-23T05:05:50;99830.30;;;7.71;78.60
84817;BME280;75051;53.104;18.058;2024-03-23T05:08:17;99821.11;;;7.70;78.48
84817;BME280;75051;53.104;18.058;2024-03-23T05:10:44;99819.35;;;7.71;78.09
84817;BME280;75051;53.104;18.058;2024-03-23T05:13:10;99814.45;;;7.71;77.86
84817;BME280;75051;53.104;18.058;2024-03-23T05:15:37;99815.70;;;7.70;77.81
84817;BME280;75051;53.104;18.058;2024-03-23T05:18:04;99813.70;;;7.66;78.02
84817;BME280;75051;53.104;18.058;2024-03-23T05:20:31;99803.44;;;7.63;77.98
84817;BME280;75051;53.104;18.058;2024-03-23T05:22:58;99792.94;;;7.63;77.91
84817;BME280;75051;53.104;18.058;2024-03-23T05:25:25;99796.19;;;7.63;77.80
84817;BME280;75051;53.104;18.058;2024-03-23T05:27:51;99797.66;;;7.63;78.05
84817;BME280;75051;53.104;18.058;2024-03-23T05:30:18;99796.85;;;7.62;78.04
84817;BME280;75051;53.104;18.058;2024-03-23T05:32:45;99797.36;;;7.62;77.98
84817;BME280;75051;53.104;18.058;2024-03-23T05:35:11;99797.09;;;7.65;77.93
84817;BME280;75051;53.104;18.058;2024-03-23T05:37:38;99794.10;;;7.66;77.78
84817;BME280;75051;53.104;18.058;2024-03-23T05:40:04;99797.55;;;7.65;77.81
84817;BME280;75051;53.104;18.058;2024-03-23T05:42:31;99787.70;;;7.63;78.05
84817;BME280;75051;53.104;18.058;2024-03-23T05:44:58;99787.12;;;7.64;77.99
84817;BME280;75051;53.104;18.058;2024-03-23T05:47:25;99792.39;;;7.65;78.01
84817;BME280;75051;53.104;18.058;2024-03-23T05:49:51;99787.73;;;7.68;78.13
84817;BME280;75051;53.104;18.058;2024-03-23T05:52:19;99781.11;;;7.71;77.92
84817;BME280;75051;53.104;18.058;2024-03-23T05:54:47;99765.95;;;7.71;77.88
84817;BME280;75051;53.104;18.058;2024-03-23T05:57:13;99754.41;;;7.71;78.19
84817;BME280;75051;53.104;18.058;2024-03-23T05:59:40;99733.40;;;7.74;78.09
84817;BME280;75051;53.104;18.058;2024-03-23T06:02:07;99717.09;;;7.81;78.04
84817;BME280;75051;53.104;18.058;2024-03-23T06:04:34;99714.80;;;7.92;77.95
84817;BME280;75051;53.104;18.058;2024-03-23T06:07:00;99709.17;;;8.05;77.59
84817;BME280;75051;53.104;18.058;2024-03-23T06:09:27;99716.81;;;8.11;77.31
84817;BME280;75051;53.104;18.058;2024-03-23T06:11:54;99718.20;;;8.11;77.33
84817;BME280;75051;53.104;18.058;2024-03-23T06:14:21;99711.94;;;8.14;77.36
84817;BME280;75051;53.104;18.058;2024-03-23T06:16:48;99726.80;;;8.18;76.87
84817;BME280;75051;53.104;18.058;2024-03-23T06:19:15;99742.02;;;8.19;76.37
84817;BME280;75051;53.104;18.058;2024-03-23T06:21:45;99746.43;;;8.15;76.63
84817;BME280;75051;53.104;18.058;2024-03-23T06:24:12;99750.52;;;8.10;76.82
84817;BME280;75051;53.104;18.058;2024-03-23T06:26:39;99754.66;;;8.03;76.96
84817;BME280;75051;53.104;18.058;2024-03-23T06:29:06;99756.61;;;8.00;77.03
84817;BME280;75051;53.104;18.058;2024-03-23T06:31:32;99751.50;;;7.99;77.13
84817;BME280;75051;53.104;18.058;2024-03-23T06:33:59;99747.17;;;7.98;77.00
84817;BME280;75051;53.104;18.058;2024-03-23T06:36:27;99741.15;;;7.95;76.94
84817;BME280;75051;53.104;18.058;2024-03-23T06:38:53;99732.92;;;7.95;77.19
84817;BME280;75051;53.104;18.058;2024-03-23T06:41:20;99733.72;;;7.97;76.87
84817;BME280;75051;53.104;18.058;2024-03-23T06:43:47;99735.89;;;8.00;76.45
84817;BME280;75051;53.104;18.058;2024-03-23T06:46:13;99734.77;;;7.99;76.42
84817;BME280;75051;53.104;18.058;2024-03-23T06:48:40;99741.89;;;7.93;76.54
84817;BME280;75051;53.104;18.058;2024-03-23T06:51:06;99742.20;;;7.94;76.55
84817;BME280;75051;53.104;18.058;2024-03-23T06:53:33;99745.55;;;7.93;76.65
84817;BME280;75051;53.104;18.058;2024-03-23T06:55:59;99741.35;;;7.94;76.98
84817;BME280;75051;53.104;18.058;2024-03-23T06:58:27;99741.79;;;7.91;76.91
84817;BME280;75051;53.104;18.058;2024-03-23T07:00:54;99738.35;;;7.90;76.94
84817;BME280;75051;53.104;18.058;2024-03-23T07:03:20;99736.07;;;7.88;77.15
84817;BME280;75051;53.104;18.058;2024-03-23T07:05:48;99731.44;;;7.86;77.01
84817;BME280;75051;53.104;18.058;2024-03-23T07:08:15;99733.20;;;7.88;77.01
84817;BME280;75051;53.104;18.058;2024-03-23T07:10:47;99729.40;;;7.90;76.96
84817;BME280;75051;53.104;18.058;2024-03-23T07:13:14;99726.42;;;7.89;76.97
84817;BME280;75051;53.104;18.058;2024-03-23T07:15:41;99725.17;;;7.87;76.77
84817;BME280;75051;53.104;18.058;2024-03-23T07:18:07;99726.67;;;7.85;76.63
84817;BME280;75051;53.104;18.058;2024-03-23T07:20:34;99723.91;;;7.84;76.57
84817;BME280;75051;53.104;18.058;2024-03-23T07:23:01;99725.39;;;7.83;76.77
84817;BME280;75051;53.104;18.058;2024-03-23T07:25:30;99729.63;;;7.83;76.79
84817;BME280;75051;53.104;18.058;2024-03-23T07:27:59;99726.12;;;7.82;76.86
84817;BME280;75051;53.104;18.058;2024-03-23T07:30:26;99720.90;;;7.80;77.04
84817;BME280;75051;53.104;18.058;2024-03-23T07:32:55;99717.88;;;7.81;76.95
84817;BME280;75051;53.104;18.058;2024-03-23T07:35:21;99714.36;;;7.85;76.53
84817;BME280;75051;53.104;18.058;2024-03-23T07:37:48;99716.86;;;7.87;76.61
84817;BME280;75051;53.104;18.058;2024-03-23T07:40:14;99707.40;;;7.86;76.63
84817;BME280;75051;53.104;18.058;2024-03-23T07:42:42;99704.59;;;7.87;76.90
84817;BME280;75051;53.104;18.058;2024-03-23T07:45:09;99706.34;;;7.89;76.72
84817;BME280;75051;53.104;18.058;2024-03-23T07:47:35;99702.94;;;7.92;76.66
84817;BME280;75051;53.104;18.058;2024-03-23T07:50:02;99707.02;;;7.92;76.59
84817;BME280;75051;53.104;18.058;2024-03-23T07:52:30;99705.81;;;7.90;76.70
84817;BME280;75051;53.104;18.058;2024-03-23T07:54:57;99709.16;;;7.88;76.39
84817;BME280;75051;53.104;18.058;2024-03-23T07:57:23;99707.86;;;7.87;76.17
84817;BME280;75051;53.104;18.058;2024-03-23T07:59:50;99699.39;;;7.84;75.90
84817;BME280;75051;53.104;18.058;2024-03-23T08:02:18;99690.69;;;7.83;76.14
84817;BME280;75051;53.104;18.058;2024-03-23T08:04:45;99684.39;;;7.84;76.29
84817;BME280;75051;53.104;18.058;2024-03-23T08:07:11;99685.85;;;7.82;76.50
84817;BME280;75051;53.104;18.058;2024-03-23T08:09:38;99692.34;;;7.79;76.70
84817;BME280;75051;53.104;18.058;2024-03-23T08:12:05;99693.65;;;7.74;76.94
84817;BME280;75051;53.104;18.058;2024-03-23T08:14:31;99681.51;;;7.70;76.79
84817;BME280;75051;53.104;18.058;2024-03-23T08:16:58;99667.68;;;7.68;76.44
84817;BME280;75051;53.104;18.058;2024-03-23T08:19:24;99659.91;;;7.66;76.58
84817;BME280;75051;53.104;18.058;2024-03-23T08:21:51;99666.70;;;7.64;76.62
84817;BME280;75051;53.104;18.058;2024-03-23T08:24:18;99666.83;;;7.59;76.76
84817;BME280;75051;53.104;18.058;2024-03-23T08:26:46;99664.39;;;7.57;76.78
84817;BME280;75051;53.104;18.058;2024-03-23T08:29:12;99660.95;;;7.60;76.96
84817;BME280;75051;53.104;18.058;2024-03-23T08:31:39;99653.18;;;7.70;76.43
84817;BME280;75051;53.104;18.058;2024-03-23T08:34:05;99650.83;;;7.65;76.00
84817;BME280;75051;53.104;18.058;2024-03-23T08:36:32;99644.02;;;7.60;76.19
84817;BME280;75051;53.104;18.058;2024-03-23T08:38:58;99638.67;;;7.57;76.41
84817;BME280;75051;53.104;18.058;2024-03-23T08:41:25;99636.10;;;7.56;76.47
84817;BME280;75051;53.104;18.058;2024-03-23T08:43:51;99637.83;;;7.56;76.69
84817;BME280;75051;53.104;18.058;2024-03-23T08:46:18;99633.94;;;7.57;76.81
84817;BME280;75051;53.104;18.058;2024-03-23T08:48:46;99630.42;;;7.55;76.71
84817;BME280;75051;53.104;18.058;2024-03-23T08:51:16;99637.91;;;7.49;76.64
84817;BME280;75051;53.104;18.058;2024-03-23T08:53:43;99639.12;;;7.45;76.82
84817;BME280;75051;53.104;18.058;2024-03-23T08:56:11;99638.04;;;7.44;76.96
84817;BME280;75051;53.104;18.058;2024-03-23T08:58:38;99642.61;;;7.38;76.75
84817;BME280;75051;53.104;18.058;2024-03-23T09:01:09;99638.14;;;7.33;76.58
84817;BME280;75051;53.104;18.058;2024-03-23T09:03:37;99632.07;;;7.28;76.75
84817;BME280;75051;53.104;18.058;2024-03-23T09:06:14;99630.23;;;7.25;76.98
84817;BME280;75051;53.104;18.058;2024-03-23T09:08:41;99620.50;;;7.25;77.13
84817;BME280;75051;53.104;18.058;2024-03-23T09:11:10;99610.52;;;7.31;77.11
84817;BME280;75051;53.104;18.058;2024-03-23T09:13:37;99601.70;;;7.31;77.29
84817;BME280;75051;53.104;18.058;2024-03-23T09:16:05;99593.82;;;7.24;76.95
84817;BME280;75051;53.104;18.058;2024-03-23T09:18:40;99597.25;;;7.16;76.73
84817;BME280;75051;53.104;18.058;2024-03-23T09:21:11;99594.98;;;7.06;76.50
84817;BME280;75051;53.104;18.058;2024-03-23T09:23:39;99596.33;;;6.94;76.96
84817;BME280;75051;53.104;18.058;2024-03-23T09:26:06;99596.89;;;6.87;77.21
84817;BME280;75051;53.104;18.058;2024-03-23T09:28:35;99600.42;;;6.90;77.54
84817;BME280;75051;53.104;18.058;2024-03-23T09:31:06;99592.99;;;6.90;77.50
84817;BME280;75051;53.104;18.058;2024-03-23T09:33:35;99590.54;;;6.86;77.48
84817;BME280;75051;53.104;18.058;2024-03-23T09:36:05;99582.74;;;6.80;77.46
84817;BME280;75051;53.104;18.058;2024-03-23T09:38:32;99584.56;;;6.75;77.44
84817;BME280;75051;53.104;18.058;2024-03-23T09:40:59;99576.46;;;6.69;76.91
84817;BME280;75051;53.104;18.058;2024-03-23T09:43:26;99571.32;;;6.57;76.60
84817;BME280;75051;53.104;18.058;2024-03-23T09:45:53;99566.74;;;6.50;77.20
84817;BME280;75051;53.104;18.058;2024-03-23T09:48:20;99556.89;;;6.49;77.25
84817;BME280;75051;53.104;18.058;2024-03-23T09:50:47;99559.77;;;6.56;77.38
84817;BME280;75051;53.104;18.058;2024-03-23T09:53:15;99554.20;;;6.64;77.39
84817;BME280;75051;53.104;18.058;2024-03-23T09:55:43;99552.60;;;6.70;77.31
84817;BME280;75051;53.104;18.058;2024-03-23T09:58:16;99555.43;;;6.75;77.44
84817;BME280;75051;53.104;18.058;2024-03-23T10:00:43;99561.05;;;6.78;76.74
84817;BME280;75051;53.104;18.058;2024-03-23T10:03:10;99554.45;;;6.76;76.73
84817;BME280;75051;53.104;18.058;2024-03-23T10:05:38;99548.77;;;6.72;76.40
84817;BME280;75051;53.104;18.058;2024-03-23T10:10:40;99550.95;;;6.70;77.03
84817;BME280;75051;53.104;18.058;2024-03-23T10:13:07;99552.84;;;6.68;76.91
84817;BME280;75051;53.104;18.058;2024-03-23T10:15:35;99552.09;;;6.63;76.93
84817;BME280;75051;53.104;18.058;2024-03-23T10:18:19;99548.70;;;6.61;76.95
84817;BME280;75051;53.104;18.058;2024-03-23T10:21:08;99543.84;;;6.58;76.99
84817;BME280;75051;53.104;18.058;2024-03-23T10:23:38;99546.18;;;6.55;77.53
84817;BME280;75051;53.104;18.058;2024-03-23T10:26:25;99548.86;;;6.49;76.79
84817;BME280;75051;53.104;18.058;2024-03-23T10:29:00;99548.16;;;6.42;76.71
84817;BME280;75051;53.104;18.058;2024-03-23T10:31:39;99544.45;;;6.38;76.69
84817;BME280;75051;53.104;18.058;2024-03-23T10:34:07;99539.24;;;6.40;76.75
84817;BME280;75051;53.104;18.058;2024-03-23T10:36:38;99533.93;;;6.42;76.82
84817;BME280;75051;53.104;18.058;2024-03-23T10:39:04;99526.02;;;6.42;76.86
84817;BME280;75051;53.104;18.058;2024-03-23T10:41:34;99527.41;;;6.44;76.60
84817;BME280;75051;53.104;18.058;2024-03-23T10:44:04;99519.42;;;6.43;75.76
84817;BME280;75051;53.104;18.058;2024-03-23T10:46:31;99521.71;;;6.42;75.79
84817;BME280;75051;53.104;18.058;2024-03-23T10:48:58;99522.48;;;6.45;75.67
84817;BME280;75051;53.104;18.058;2024-03-23T10:51:25;99517.21;;;6.47;75.51
84817;BME280;75051;53.104;18.058;2024-03-23T10:53:53;99509.84;;;6.49;75.57
84817;BME280;75051;53.104;18.058;2024-03-23T10:56:22;99498.92;;;6.51;75.38
84817;BME280;75051;53.104;18.058;2024-03-23T10:58:49;99492.88;;;6.55;75.66
84817;BME280;75051;53.104;18.058;2024-03-23T11:01:16;99489.21;;;6.62;75.46
84817;BME280;75051;53.104;18.058;2024-03-23T11:03:46;99487.23;;;6.70;75.61
84817;BME280;75051;53.104;18.058;2024-03-23T11:06:34;99481.58;;;6.79;75.49
84817;BME280;75051;53.104;18.058;2024-03-23T11:09:01;99472.47;;;6.86;75.53
84817;BME280;75051;53.104;18.058;2024-03-23T11:11:28;99468.05;;;6.87;75.05
84817;BME280;75051;53.104;18.058;2024-03-23T11:13:59;99463.96;;;6.84;74.11
84817;BME280;75051;53.104;18.058;2024-03-23T11:16:27;99459.58;;;6.85;74.21
84817;BME280;75051;53.104;18.058;2024-03-23T11:19:34;99448.88;;;6.88;74.39
84817;BME280;75051;53.104;18.058;2024-03-23T11:22:01;99447.96;;;6.93;74.61
84817;BME280;75051;53.104;18.058;2024-03-23T11:24:27;99453.16;;;6.93;74.48
84817;BME280;75051;53.104;18.058;2024-03-23T11:26:54;99450.55;;;6.95;74.78
84817;BME280;75051;53.104;18.058;2024-03-23T11:29:21;99439.36;;;6.94;74.38
84817;BME280;75051;53.104;18.058;2024-03-23T11:31:48;99437.73;;;6.92;74.16
84817;BME280;75051;53.104;18.058;2024-03-23T11:34:16;99444.98;;;6.95;74.64
84817;BME280;75051;53.104;18.058;2024-03-23T11:36:43;99447.00;;;6.95;74.27
84817;BME280;75051;53.104;18.058;2024-03-23T11:39:14;99434.58;;;6.88;74.09
84817;BME280;75051;53.104;18.058;2024-03-23T11:41:50;99432.91;;;6.84;74.17
84817;BME280;75051;53.104;18.058;2024-03-23T11:44:22;99432.52;;;6.83;74.53
84817;BME280;75051;53.104;18.058;2024-03-23T11:46:49;99426.02;;;6.86;74.36
84817;BME280;75051;53.104;18.058;2024-03-23T11:49:26;99424.94;;;6.86;74.12
84817;BME280;75051;53.104;18.058;2024-03-23T11:51:56;99433.28;;;6.85;74.43
84817;BME280;75051;53.104;18.058;2024-03-23T11:54:24;99434.71;;;6.82;74.34
84817;BME280;75051;53.104;18.058;2024-03-23T11:57:00;99426.72;;;6.80;74.41
84817;BME280;75051;53.104;18.058;2024-03-23T11:59:41;99425.34;;;6.78;74.63
84817;BME280;75051;53.104;18.058;2024-03-23T12:02:12;99420.73;;;6.75;74.42
84817;BME280;75051;53.104;18.058;2024-03-23T12:04:42;99412.52;;;6.72;74.47
84817;BME280;75051;53.104;18.058;2024-03-23T12:07:19;99403.92;;;6.67;74.46
84817;BME280;75051;53.104;18.058;2024-03-23T12:09:48;99396.85;;;6.61;74.49
84817;BME280;75051;53.104;18.058;2024-03-23T12:12:28;99386.14;;;6.59;75.11
84817;BME280;75051;53.104;18.058;2024-03-23T12:15:05;99370.82;;;6.62;75.10
84817;BME280;75051;53.104;18.058;2024-03-23T12:17:34;99375.38;;;6.69;75.54
84817;BME280;75051;53.104;18.058;2024-03-23T12:20:01;99373.93;;;6.76;75.23
84817;BME280;75051;53.104;18.058;2024-03-23T12:22:29;99368.02;;;6.78;75.29
84817;BME280;75051;53.104;18.058;2024-03-23T12:24:58;99367.73;;;6.79;75.46
84817;BME280;75051;53.104;18.058;2024-03-23T12:27:25;99368.42;;;6.75;75.19
84817;BME280;75051;53.104;18.058;2024-03-23T12:29:52;99374.02;;;6.70;75.56
84817;BME280;75051;53.104;18.058;2024-03-23T12:32:19;99380.55;;;6.68;75.09
84817;BME280;75051;53.104;18.058;2024-03-23T12:34:46;99385.98;;;6.66;75.59
84817;BME280;75051;53.104;18.058;2024-03-23T12:37:13;99378.08;;;6.62;75.51
84817;BME280;75051;53.104;18.058;2024-03-23T12:39:42;99367.27;;;6.57;75.76
84817;BME280;75051;53.104;18.058;2024-03-23T12:42:09;99346.88;;;6.51;75.84
84817;BME280;75051;53.104;18.058;2024-03-23T12:44:38;99324.12;;;6.48;76.00
84817;BME280;75051;53.104;18.058;2024-03-23T12:47:05;99340.36;;;6.45;76.04
84817;BME280;75051;53.104;18.058;2024-03-23T12:49:31;99348.80;;;6.44;76.13
84817;BME280;75051;53.104;18.058;2024-03-23T12:51:58;99349.75;;;6.40;76.15
84817;BME280;75051;53.104;18.058;2024-03-23T12:54:26;99343.13;;;6.37;76.26
84817;BME280;75051;53.104;18.058;2024-03-23T12:56:52;99339.05;;;6.35;76.21
84817;BME280;75051;53.104;18.058;2024-03-23T12:59:19;99327.80;;;6.33;76.15
84817;BME280;75051;53.104;18.058;2024-03-23T13:01:46;99319.28;;;6.29;76.52
84817;BME280;75051;53.104;18.058;2024-03-23T13:04:12;99308.25;;;6.25;76.64
84817;BME280;75051;53.104;18.058;2024-03-23T13:06:39;99297.91;;;6.19;76.64
84817;BME280;75051;53.104;18.058;2024-03-23T13:09:06;99284.14;;;6.15;76.69
84817;BME280;75051;53.104;18.058;2024-03-23T13:11:32;99268.18;;;6.12;76.52
84817;BME280;75051;53.104;18.058;2024-03-23T13:13:59;99254.02;;;6.10;76.72
84817;BME280;75051;53.104;18.058;2024-03-23T13:16:26;99259.72;;;6.09;76.87
84817;BME280;75051;53.104;18.058;2024-03-23T13:18:52;99266.75;;;6.07;76.61
84817;BME280;75051;53.104;18.058;2024-03-23T13:21:19;99274.48;;;6.03;76.48
84817;BME280;75051;53.104;18.058;2024-03-23T13:23:48;99282.77;;;6.03;76.50
84817;BME280;75051;53.104;18.058;2024-03-23T13:26:16;99288.16;;;6.03;76.62
84817;BME280;75051;53.104;18.058;2024-03-23T13:28:44;99293.14;;;6.01;76.49
84817;BME280;75051;53.104;18.058;2024-03-23T13:31:11;99300.99;;;5.98;76.82
84817;BME280;75051;53.104;18.058;2024-03-23T13:33:38;99306.16;;;5.94;76.69
84817;BME280;75051;53.104;18.058;2024-03-23T13:36:05;99310.31;;;5.91;76.40
84817;BME280;75051;53.104;18.058;2024-03-23T13:38:31;99304.85;;;5.88;76.26
84817;BME280;75051;53.104;18.058;2024-03-23T13:41:00;99303.10;;;5.86;76.12
84817;BME280;75051;53.104;18.058;2024-03-23T13:43:30;99300.06;;;5.83;76.03
84817;BME280;75051;53.104;18.058;2024-03-23T13:45:58;99309.58;;;5.75;75.94
84817;BME280;75051;53.104;18.058;2024-03-23T13:48:27;99314.70;;;5.71;76.29
84817;BME280;75051;53.104;18.058;2024-03-23T13:51:01;99308.03;;;5.71;76.16
84817;BME280;75051;53.104;18.058;2024-03-23T13:53:28;99301.33;;;5.70;76.11
84817;BME280;75051;53.104;18.058;2024-03-23T13:55:57;99304.91;;;5.68;76.39
84817;BME280;75051;53.104;18.058;2024-03-23T13:58:24;99308.75;;;5.64;76.39
84817;BME280;75051;53.104;18.058;2024-03-23T14:00:53;99323.34;;;5.64;77.04